Time;durP1;ratioP1;P1;durP2;ratioP2;P2;SDS_P1;SDS_P2;PMS_P1;PMS_P2;Temp;Humidity;BMP_temperature;BMP_pressure;BME280_temperature;BME280_humidity;BME280_pressure;Samples;Min_cycle;Max_cycle;Signal;HPM_P1;HPM_P2
2023/05/08 00:00:16;;;;;;;0.00;0.00;;;;;;;;;;1740144;28;20200;-76
2023/05/08 00:01:07;;;;;;;0.00;0.00;;;;;;;;;;1734837;28;20205;-76
2023/05/08 00:01:58;;;;;;;0.00;0.00;;;;;;;;;;1738618;28;20199;-76
2023/05/08 00:02:50;;;;;;;0.00;0.00;;;;;;;;;;1739988;28;20320;-77
2023/05/08 00:03:41;;;;;;;0.00;0.00;;;;;;;;;;1739732;28;20257;-76
2023/05/08 00:04:33;;;;;;;0.00;0.00;;;;;;;;;;1739919;28;20227;-76
2023/05/08 00:05:25;;;;;;;0.00;0.00;;;;;;;;;;1740142;28;20232;-76
2023/05/08 00:06:16;;;;;;;0.00;0.00;;;;;;;;;;1740207;28;20231;-76
2023/05/08 00:07:07;;;;;;;0.00;0.00;;;;;;;;;;1738697;28;20270;-76
2023/05/08 00:08:00;;;;;;;0.00;0.00;;;;;;;;;;1740329;28;20205;-76
2023/05/08 00:08:51;;;;;;;0.00;0.00;;;;;;;;;;1739399;28;20231;-76
2023/05/08 00:09:44;;;;;;;0.00;0.00;;;;;;;;;;1740315;28;20327;-76
2023/05/08 00:10:35;;;;;;;0.00;0.00;;;;;;;;;;1740016;28;20216;-76
2023/05/08 00:11:27;;;;;;;0.00;0.00;;;;;;;;;;1740331;28;20797;-76
2023/05/08 00:12:18;;;;;;;0.00;0.00;;;;;;;;;;1733981;28;20233;-77
2023/05/08 00:13:10;;;;;;;0.00;0.00;;;;;;;;;;1733607;28;20686;-76
2023/05/08 00:14:02;;;;;;;0.00;0.00;;;;;;;;;;1733185;28;20216;-76
2023/05/08 00:14:54;;;;;;;0.00;0.00;;;;;;;;;;1733155;28;20211;-76
2023/05/08 00:15:45;;;;;;;0.00;0.00;;;;;;;;;;1733444;28;20215;-76
2023/05/08 00:16:37;;;;;;;0.00;0.00;;;;;;;;;;1732977;28;20230;-75
2023/05/08 00:17:28;;;;;;;0.00;0.00;;;;;;;;;;1732218;28;20756;-76
2023/05/08 00:18:20;;;;;;;0.00;0.00;;;;;;;;;;1733241;28;20199;-75
2023/05/08 00:19:11;;;;;;;0.00;0.00;;;;;;;;;;1733031;28;20251;-75
2023/05/08 00:20:07;;;;;;;0.00;0.00;;;;;;;;;;1733251;28;20327;-76
2023/05/08 00:20:58;;;;;;;0.00;0.00;;;;;;;;;;1733207;28;20211;-76
2023/05/08 00:21:51;;;;;;;0.00;0.00;;;;;;;;;;1733154;28;20201;-76
2023/05/08 00:22:42;;;;;;;0.00;0.00;;;;;;;;;;1731893;28;20216;-76
2023/05/08 00:23:34;;;;;;;0.00;0.00;;;;;;;;;;1732584;28;20212;-76
2023/05/08 00:24:25;;;;;;;0.00;0.00;;;;;;;;;;1729398;28;20212;-76
2023/05/08 00:25:18;;;;;;;0.00;0.00;;;;;;;;;;1733332;28;20642;-76
2023/05/08 00:26:09;;;;;;;0.00;0.00;;;;;;;;;;1733787;28;20211;-76
2023/05/08 00:27:01;;;;;;;0.00;0.00;;;;;;;;;;1732955;28;21604;-76
2023/05/08 00:27:52;;;;;;;0.00;0.00;;;;;;;;;;1733396;28;20262;-76
2023/05/08 00:28:44;;;;;;;0.00;0.00;;;;;;;;;;1729676;28;20213;-75
2023/05/08 00:29:35;;;;;;;0.00;0.00;;;;;;;;;;1731096;28;20200;-76
2023/05/08 00:30:28;;;;;;;0.00;0.00;;;;;;;;;;1731831;28;20292;-76
2023/05/08 00:31:19;;;;;;;0.00;0.00;;;;;;;;;;1733315;28;20638;-76
2023/05/08 00:32:11;;;;;;;0.00;0.00;;;;;;;;;;1732993;28;20215;-76
2023/05/08 00:33:02;;;;;;;0.00;0.00;;;;;;;;;;1733173;28;20263;-76
2023/05/08 00:33:54;;;;;;;0.00;0.00;;;;;;;;;;1732087;28;20251;-77
2023/05/08 00:34:45;;;;;;;0.00;0.00;;;;;;;;;;1730254;28;20248;-76
2023/05/08 00:35:39;;;;;;;0.00;0.00;;;;;;;;;;1733172;28;20204;-76
2023/05/08 00:36:31;;;;;;;0.00;0.00;;;;;;;;;;1733235;28;20210;-76
2023/05/08 00:37:23;;;;;;;0.00;0.00;;;;;;;;;;1732894;28;20290;-77
2023/05/08 00:38:14;;;;;;;0.00;0.00;;;;;;;;;;1733007;28;20201;-77
2023/05/08 00:39:06;;;;;;;0.00;0.00;;;;;;;;;;1732533;28;20210;-76
2023/05/08 00:39:57;;;;;;;0.00;0.00;;;;;;;;;;1733070;28;20224;-76
2023/05/08 00:40:51;;;;;;;0.00;0.00;;;;;;;;;;1733389;28;20300;-77
2023/05/08 00:41:42;;;;;;;0.00;0.00;;;;;;;;;;1732807;28;20889;-76
2023/05/08 00:42:34;;;;;;;0.00;0.00;;;;;;;;;;1733192;28;20297;-77
2023/05/08 00:43:27;;;;;;;0.00;0.00;;;;;;;;;;1732679;28;20738;-77
2023/05/08 00:44:19;;;;;;;0.00;0.00;;;;;;;;;;1729230;28;20201;-76
2023/05/08 00:45:10;;;;;;;0.00;0.00;;;;;;;;;;1733371;28;20615;-76
2023/05/08 00:46:02;;;;;;;0.00;0.00;;;;;;;;;;1733124;28;20233;-77
2023/05/08 00:46:53;;;;;;;0.00;0.00;;;;;;;;;;1732653;28;20207;-76
2023/05/08 00:47:45;;;;;;;0.00;0.00;;;;;;;;;;1729993;28;20657;-76
2023/05/08 00:48:37;;;;;;;0.00;0.00;;;;;;;;;;1732794;28;20207;-76
2023/05/08 00:49:29;;;;;;;0.00;0.00;;;;;;;;;;1733009;28;20252;-76
2023/05/08 00:50:21;;;;;;;0.00;0.00;;;;;;;;;;1733072;28;20294;-76
2023/05/08 00:51:13;;;;;;;0.00;0.00;;;;;;;;;;1733468;28;20879;-76
2023/05/08 00:52:07;;;;;;;0.00;0.00;;;;;;;;;;1732524;28;20205;-76
2023/05/08 00:53:00;;;;;;;0.00;0.00;;;;;;;;;;1731862;28;20528;-76
2023/05/08 00:53:52;;;;;;;0.00;0.00;;;;;;;;;;1731421;28;20239;-76
2023/05/08 00:54:44;;;;;;;0.00;0.00;;;;;;;;;;1729926;28;20262;-77
2023/05/08 00:55:35;;;;;;;0.00;0.00;;;;;;;;;;1732608;28;20215;-77
2023/05/08 00:56:28;;;;;;;0.00;0.00;;;;;;;;;;1732909;28;20204;-77
2023/05/08 00:57:20;;;;;;;0.08;0.08;;;;;;;;;;1732402;28;20539;-78
2023/05/08 00:58:13;;;;;;;0.00;0.00;;;;;;;;;;1733589;28;20292;-78
2023/05/08 00:59:07;;;;;;;0.00;0.00;;;;;;;;;;1731611;28;20878;-78
2023/05/08 01:00:02;;;;;;;0.00;0.00;;;;;;;;;;1732098;28;20232;-79
2023/05/08 01:00:54;;;;;;;0.00;0.00;;;;;;;;;;1733909;28;20205;-78
2023/05/08 01:01:47;;;;;;;0.00;0.00;;;;;;;;;;1733722;28;20208;-78
2023/05/08 01:02:39;;;;;;;0.00;0.00;;;;;;;;;;1732686;28;20210;-78
2023/05/08 01:03:33;;;;;;;0.00;0.00;;;;;;;;;;1733782;28;20598;-78
2023/05/08 01:04:24;;;;;;;0.00;0.00;;;;;;;;;;1734186;28;20204;-78
2023/05/08 01:05:16;;;;;;;0.00;0.00;;;;;;;;;;1734591;28;20251;-78
2023/05/08 01:06:08;;;;;;;0.00;0.00;;;;;;;;;;1734654;28;20215;-78
2023/05/08 01:07:00;;;;;;;0.00;0.00;;;;;;;;;;1733415;28;20248;-78
2023/05/08 01:07:51;;;;;;;0.00;0.00;;;;;;;;;;1732864;28;20269;-76
2023/05/08 01:08:44;;;;;;;0.00;0.00;;;;;;;;;;1732250;28;20219;-75
2023/05/08 01:09:35;;;;;;;0.00;0.00;;;;;;;;;;1730397;28;20239;-76
2023/05/08 01:10:33;;;;;;;0.00;0.00;;;;;;;;;;1731016;28;20610;-76
2023/05/08 01:11:27;;;;;;;0.00;0.00;;;;;;;;;;1733101;28;20231;-76
2023/05/08 01:12:30;;;;;;;0.00;0.00;;;;;;;;;;1736511;28;20240;-76
2023/05/08 01:13:24;;;;;;;0.00;0.00;;;;;;;;;;1739625;28;20184;-76
2023/05/08 01:14:18;;;;;;;0.00;0.00;;;;;;;;;;1739768;28;20196;-76
2023/05/08 01:15:11;;;;;;;0.00;0.00;;;;;;;;;;1736017;28;20203;-76
2023/05/08 01:16:08;;;;;;;0.00;0.00;;;;;;;;;;1739796;28;20202;-75
2023/05/08 01:17:04;;;;;;;0.00;0.00;;;;;;;;;;1738882;28;20219;-76
2023/05/08 01:18:03;;;;;;;0.00;0.00;;;;;;;;;;1739854;28;20241;-75
2023/05/08 01:18:59;;;;;;;0.00;0.00;;;;;;;;;;1739161;28;20622;-76
2023/05/08 01:19:56;;;;;;;0.00;0.00;;;;;;;;;;1739687;28;20196;-76
2023/05/08 01:20:51;;;;;;;0.00;0.00;;;;;;;;;;1739810;28;20199;-76
2023/05/08 01:21:46;;;;;;;0.00;0.00;;;;;;;;;;1739366;28;20224;-76
2023/05/08 01:22:43;;;;;;;0.00;0.00;;;;;;;;;;1739572;28;20210;-75
2023/05/08 01:23:43;;;;;;;0.00;0.00;;;;;;;;;;1738827;28;20318;-76
2023/05/08 01:24:42;;;;;;;0.00;0.00;;;;;;;;;;1739607;28;20562;-76
2023/05/08 01:26:03;;;;;;;0.00;0.00;;;;;;;;;;1739522;28;20198;-76
2023/05/08 01:27:12;;;;;;;0.00;0.00;;;;;;;;;;1739037;28;20214;-76
2023/05/08 01:28:29;;;;;;;0.00;0.00;;;;;;;;;;1739429;28;20199;-76
2023/05/08 01:29:42;;;;;;;0.00;0.00;;;;;;;;;;1739286;28;20199;-75
2023/05/08 01:30:41;;;;;;;0.00;0.00;;;;;;;;;;1739687;28;20200;-75
2023/05/08 01:31:40;;;;;;;0.00;0.00;;;;;;;;;;1739271;28;20261;-75
2023/05/08 01:32:36;;;;;;;0.00;0.00;;;;;;;;;;1740954;28;20198;-76
2023/05/08 01:33:33;;;;;;;0.00;0.00;;;;;;;;;;1739134;28;20215;-76
2023/05/08 01:34:27;;;;;;;0.00;0.00;;;;;;;;;;1739669;28;20196;-76
2023/05/08 01:35:21;;;;;;;0.03;0.03;;;;;;;;;;1739628;28;20208;-76
2023/05/08 01:36:18;;;;;;;0.00;0.00;;;;;;;;;;1739495;28;20629;-76
2023/05/08 01:37:12;;;;;;;0.00;0.00;;;;;;;;;;1738346;28;20286;-76
2023/05/08 01:38:07;;;;;;;0.00;0.00;;;;;;;;;;1739672;28;20300;-76
2023/05/08 01:39:04;;;;;;;0.00;0.00;;;;;;;;;;1739148;28;20288;-77
2023/05/08 01:40:03;;;;;;;0.00;0.00;;;;;;;;;;1735948;28;20215;-78
2023/05/08 01:40:58;;;;;;;0.00;0.00;;;;;;;;;;1739044;28;20279;-78
2023/05/08 01:41:54;;;;;;;0.00;0.00;;;;;;;;;;1739109;28;20303;-76
2023/05/08 01:42:47;;;;;;;0.00;0.00;;;;;;;;;;1739724;28;20801;-76
2023/05/08 01:43:42;;;;;;;0.00;0.00;;;;;;;;;;1739077;28;20239;-76
2023/05/08 01:44:34;;;;;;;0.00;0.00;;;;;;;;;;1739660;28;20276;-77
2023/05/08 01:45:31;;;;;;;0.00;0.00;;;;;;;;;;1739528;28;20203;-76
2023/05/08 01:46:27;;;;;;;0.00;0.00;;;;;;;;;;1739689;28;20982;-75
2023/05/08 01:47:21;;;;;;;0.00;0.00;;;;;;;;;;1739565;28;20199;-75
2023/05/08 01:48:17;;;;;;;0.00;0.00;;;;;;;;;;1733480;28;20264;-75
2023/05/08 01:49:10;;;;;;;0.00;0.00;;;;;;;;;;1739351;28;20659;-75
2023/05/08 01:50:04;;;;;;;0.00;0.00;;;;;;;;;;1739234;28;20244;-75
2023/05/08 01:50:59;;;;;;;0.00;0.00;;;;;;;;;;1740538;28;20211;-75
2023/05/08 01:51:58;;;;;;;0.00;0.00;;;;;;;;;;1739487;28;20275;-75
2023/05/08 01:52:53;;;;;;;0.00;0.00;;;;;;;;;;1742342;28;20205;-75
2023/05/08 01:53:47;;;;;;;0.00;0.00;;;;;;;;;;1740191;28;20218;-74
2023/05/08 01:54:41;;;;;;;0.00;0.00;;;;;;;;;;1736902;28;20570;-76
2023/05/08 01:55:35;;;;;;;0.00;0.00;;;;;;;;;;1740807;28;20210;-75
2023/05/08 01:56:29;;;;;;;0.00;0.00;;;;;;;;;;1740626;28;20594;-75
2023/05/08 01:57:21;;;;;;;0.00;0.00;;;;;;;;;;1740617;28;20207;-75
2023/05/08 01:58:14;;;;;;;0.00;0.00;;;;;;;;;;1740990;28;20211;-76
2023/05/08 01:59:05;;;;;;;0.00;0.00;;;;;;;;;;1740658;28;20215;-75
2023/05/08 02:00:02;;;;;;;0.00;0.00;;;;;;;;;;1740887;28;20210;-75
2023/05/08 02:00:54;;;;;;;0.00;0.00;;;;;;;;;;1740379;28;20247;-75
2023/05/08 02:01:47;;;;;;;0.00;0.00;;;;;;;;;;1740576;28;20885;-75
2023/05/08 02:02:38;;;;;;;0.00;0.00;;;;;;;;;;1742291;28;20224;-75
2023/05/08 02:03:32;;;;;;;0.03;0.03;;;;;;;;;;1740472;28;20200;-76
2023/05/08 02:04:23;;;;;;;0.00;0.00;;;;;;;;;;1740632;28;20288;-76
2023/05/08 02:05:15;;;;;;;0.00;0.00;;;;;;;;;;1741244;28;20214;-76
2023/05/08 02:06:07;;;;;;;0.00;0.00;;;;;;;;;;1740846;28;20268;-76
2023/05/08 02:07:00;;;;;;;0.05;0.05;;;;;;;;;;1740226;28;20214;-76
2023/05/08 02:07:51;;;;;;;0.00;0.00;;;;;;;;;;1740725;28;20207;-76
2023/05/08 02:08:44;;;;;;;0.00;0.00;;;;;;;;;;1740134;28;20242;-76
2023/05/08 02:09:36;;;;;;;0.00;0.00;;;;;;;;;;1745224;28;20207;-76
2023/05/08 02:10:28;;;;;;;0.00;0.00;;;;;;;;;;1740789;28;20265;-76
2023/05/08 02:11:20;;;;;;;0.00;0.00;;;;;;;;;;1741253;28;20276;-76
2023/05/08 02:12:13;;;;;;;0.00;0.00;;;;;;;;;;1739532;28;20241;-76
2023/05/08 02:13:05;;;;;;;0.00;0.00;;;;;;;;;;1740836;28;20643;-76
2023/05/08 02:13:59;;;;;;;0.00;0.00;;;;;;;;;;1740384;28;20240;-76
2023/05/08 02:14:52;;;;;;;0.00;0.00;;;;;;;;;;1740767;28;20215;-76
2023/05/08 02:15:44;;;;;;;0.00;0.00;;;;;;;;;;1741055;28;20290;-76
2023/05/08 02:16:36;;;;;;;0.00;0.00;;;;;;;;;;1740683;28;20204;-77
2023/05/08 02:17:28;;;;;;;0.00;0.00;;;;;;;;;;1742083;28;20207;-76
2023/05/08 02:18:20;;;;;;;0.00;0.00;;;;;;;;;;1740970;28;20213;-76
2023/05/08 02:19:14;;;;;;;0.00;0.00;;;;;;;;;;1740427;28;20220;-76
2023/05/08 02:20:07;;;;;;;0.00;0.00;;;;;;;;;;1740903;28;20236;-76
2023/05/08 02:20:59;;;;;;;0.00;0.00;;;;;;;;;;1740534;28;20222;-76
2023/05/08 02:21:51;;;;;;;0.00;0.00;;;;;;;;;;1740473;28;20276;-76
2023/05/08 02:22:43;;;;;;;0.00;0.00;;;;;;;;;;1740928;28;20280;-76
2023/05/08 02:23:35;;;;;;;0.00;0.00;;;;;;;;;;1739146;28;20207;-76
2023/05/08 02:24:26;;;;;;;0.00;0.00;;;;;;;;;;1739186;28;20211;-75
2023/05/08 02:25:19;;;;;;;0.00;0.00;;;;;;;;;;1740867;28;20215;-75
2023/05/08 02:26:11;;;;;;;0.00;0.00;;;;;;;;;;1740096;28;20209;-75
2023/05/08 02:27:03;;;;;;;0.00;0.00;;;;;;;;;;1740199;28;20232;-75
2023/05/08 02:27:55;;;;;;;0.00;0.00;;;;;;;;;;1742541;28;20649;-75
2023/05/08 02:28:47;;;;;;;0.00;0.00;;;;;;;;;;1740424;28;20281;-75
2023/05/08 02:29:38;;;;;;;0.00;0.00;;;;;;;;;;1740731;28;20203;-75
2023/05/08 02:30:31;;;;;;;0.00;0.00;;;;;;;;;;1740844;28;20203;-75
2023/05/08 02:31:22;;;;;;;0.00;0.00;;;;;;;;;;1740808;28;20204;-76
2023/05/08 02:32:14;;;;;;;0.00;0.00;;;;;;;;;;1740513;28;20210;-75
2023/05/08 02:33:07;;;;;;;0.00;0.00;;;;;;;;;;1740895;28;20278;-75
2023/05/08 02:34:00;;;;;;;0.00;0.00;;;;;;;;;;1740176;28;20670;-75
2023/05/08 02:34:54;;;;;;;0.00;0.00;;;;;;;;;;1740701;28;20573;-75
2023/05/08 02:35:48;;;;;;;0.00;0.00;;;;;;;;;;1740759;28;20627;-75
2023/05/08 02:36:39;;;;;;;0.00;0.00;;;;;;;;;;1740502;28;20215;-77
2023/05/08 02:37:32;;;;;;;0.00;0.00;;;;;;;;;;1740374;28;20207;-77
2023/05/08 02:38:25;;;;;;;0.00;0.00;;;;;;;;;;1740255;28;20216;-77
2023/05/08 02:39:18;;;;;;;0.00;0.00;;;;;;;;;;1740909;28;20264;-76
2023/05/08 02:40:10;;;;;;;0.00;0.00;;;;;;;;;;1740733;28;20222;-76
2023/05/08 02:41:04;;;;;;;0.00;0.00;;;;;;;;;;1740629;28;20200;-77
2023/05/08 02:41:55;;;;;;;0.00;0.00;;;;;;;;;;1740292;28;20765;-76
2023/05/08 02:42:47;;;;;;;0.00;0.00;;;;;;;;;;1740821;28;20208;-77
2023/05/08 02:43:38;;;;;;;0.00;0.00;;;;;;;;;;1740275;28;20689;-76
2023/05/08 02:44:30;;;;;;;0.00;0.00;;;;;;;;;;1740520;28;20203;-76
2023/05/08 02:45:22;;;;;;;0.00;0.00;;;;;;;;;;1740762;28;20210;-75
2023/05/08 02:46:16;;;;;;;0.00;0.00;;;;;;;;;;1740844;28;20214;-75
2023/05/08 02:47:13;;;;;;;0.00;0.00;;;;;;;;;;1740274;28;20279;-76
2023/05/08 02:48:09;;;;;;;0.00;0.00;;;;;;;;;;1739777;28;20204;-76
2023/05/08 02:49:03;;;;;;;0.00;0.00;;;;;;;;;;1740076;28;20223;-75
2023/05/08 02:50:03;;;;;;;0.00;0.00;;;;;;;;;;1740445;28;20220;-76
2023/05/08 02:50:56;;;;;;;0.00;0.00;;;;;;;;;;1740416;28;20340;-76
2023/05/08 02:51:51;;;;;;;0.00;0.00;;;;;;;;;;1740024;28;20211;-75
2023/05/08 02:52:44;;;;;;;0.00;0.00;;;;;;;;;;1740237;28;20206;-76
2023/05/08 02:53:36;;;;;;;0.00;0.00;;;;;;;;;;1739787;28;20207;-76
2023/05/08 02:54:32;;;;;;;0.00;0.00;;;;;;;;;;1740180;28;20550;-76
2023/05/08 02:55:33;;;;;;;0.00;0.00;;;;;;;;;;1739959;28;20199;-76
2023/05/08 02:56:30;;;;;;;0.00;0.00;;;;;;;;;;1745754;28;20480;-76
2023/05/08 02:57:23;;;;;;;0.00;0.00;;;;;;;;;;1740587;28;20195;-76
2023/05/08 02:58:17;;;;;;;0.00;0.00;;;;;;;;;;1734710;28;20686;-76
2023/05/08 02:59:13;;;;;;;0.00;0.00;;;;;;;;;;1740070;28;21004;-75
2023/05/08 03:00:07;;;;;;;0.00;0.00;;;;;;;;;;1740799;28;20207;-75
2023/05/08 03:01:05;;;;;;;0.00;0.00;;;;;;;;;;1739737;28;20205;-75
2023/05/08 03:01:59;;;;;;;0.00;0.00;;;;;;;;;;1739819;28;20210;-75
2023/05/08 03:02:55;;;;;;;0.00;0.00;;;;;;;;;;1740374;28;20220;-75
2023/05/08 03:03:48;;;;;;;0.00;0.00;;;;;;;;;;1740298;28;20218;-77
2023/05/08 03:04:42;;;;;;;0.00;0.00;;;;;;;;;;1736196;28;20653;-77
2023/05/08 03:05:37;;;;;;;0.00;0.00;;;;;;;;;;1740222;28;20275;-77
2023/05/08 03:06:32;;;;;;;0.00;0.00;;;;;;;;;;1739878;28;20268;-77
2023/05/08 03:07:24;;;;;;;0.00;0.00;;;;;;;;;;1740050;28;20255;-78
2023/05/08 03:08:18;;;;;;;0.00;0.00;;;;;;;;;;1740931;28;20205;-77
2023/05/08 03:09:13;;;;;;;0.10;0.10;;;;;;;;;;1743115;28;20209;-77
2023/05/08 03:10:06;;;;;;;0.00;0.00;;;;;;;;;;1742093;28;20596;-77
2023/05/08 03:10:59;;;;;;;0.00;0.00;;;;;;;;;;1740486;28;20214;-77
2023/05/08 03:11:53;;;;;;;0.10;0.10;;;;;;;;;;1740147;28;20632;-77
2023/05/08 03:12:45;;;;;;;0.00;0.00;;;;;;;;;;1742474;28;20295;-77
2023/05/08 03:13:39;;;;;;;0.00;0.00;;;;;;;;;;1739837;28;20308;-77
2023/05/08 03:14:31;;;;;;;0.00;0.00;;;;;;;;;;1745202;28;20204;-77
2023/05/08 03:15:26;;;;;;;0.00;0.00;;;;;;;;;;1740480;28;20176;-77
2023/05/08 03:16:19;;;;;;;0.00;0.00;;;;;;;;;;1740589;28;20204;-77
2023/05/08 03:17:13;;;;;;;0.00;0.00;;;;;;;;;;1739869;28;20203;-75
2023/05/08 03:18:07;;;;;;;0.00;0.00;;;;;;;;;;1740613;28;20702;-75
2023/05/08 03:19:01;;;;;;;0.00;0.00;;;;;;;;;;1740024;28;20213;-75
2023/05/08 03:19:54;;;;;;;0.00;0.00;;;;;;;;;;1740089;28;20824;-75
2023/05/08 03:20:50;;;;;;;0.00;0.00;;;;;;;;;;1740497;28;20599;-75
2023/05/08 03:21:42;;;;;;;0.00;0.00;;;;;;;;;;1740148;28;20205;-75
2023/05/08 03:22:36;;;;;;;0.00;0.00;;;;;;;;;;1740042;28;20648;-75
2023/05/08 03:23:28;;;;;;;0.00;0.00;;;;;;;;;;1739674;28;20538;-75
2023/05/08 03:24:20;;;;;;;0.00;0.00;;;;;;;;;;1740198;28;20230;-75
2023/05/08 03:25:13;;;;;;;0.00;0.00;;;;;;;;;;1740678;28;20259;-75
2023/05/08 03:26:05;;;;;;;0.00;0.00;;;;;;;;;;1740245;28;20216;-76
2023/05/08 03:26:56;;;;;;;0.00;0.00;;;;;;;;;;1739991;28;20614;-76
2023/05/08 03:27:49;;;;;;;0.00;0.00;;;;;;;;;;1740481;28;20226;-75
2023/05/08 03:28:40;;;;;;;0.03;0.03;;;;;;;;;;1740272;28;20758;-76
2023/05/08 03:29:34;;;;;;;0.00;0.00;;;;;;;;;;1740467;28;20214;-76
2023/05/08 03:30:26;;;;;;;0.00;0.00;;;;;;;;;;1740528;28;20199;-76
2023/05/08 03:31:19;;;;;;;0.00;0.00;;;;;;;;;;1740741;28;20229;-76
2023/05/08 03:32:11;;;;;;;0.00;0.00;;;;;;;;;;1739964;28;20206;-76
2023/05/08 03:33:04;;;;;;;0.00;0.00;;;;;;;;;;1740788;28;20604;-77
2023/05/08 03:33:55;;;;;;;0.00;0.00;;;;;;;;;;1740140;28;20207;-76
2023/05/08 03:34:49;;;;;;;0.00;0.00;;;;;;;;;;1740764;28;20199;-76
2023/05/08 03:35:40;;;;;;;0.00;0.00;;;;;;;;;;1740744;28;20258;-77
2023/05/08 03:36:33;;;;;;;0.00;0.00;;;;;;;;;;1740244;28;20195;-77
2023/05/08 03:37:26;;;;;;;0.00;0.00;;;;;;;;;;1740359;28;20206;-76
2023/05/08 03:38:18;;;;;;;0.00;0.00;;;;;;;;;;1740407;28;20213;-76
2023/05/08 03:39:09;;;;;;;0.00;0.00;;;;;;;;;;1740135;28;20210;-76
2023/05/08 03:40:02;;;;;;;0.00;0.00;;;;;;;;;;1740372;28;20529;-76
2023/05/08 03:40:53;;;;;;;0.00;0.00;;;;;;;;;;1739860;28;20213;-76
2023/05/08 03:41:46;;;;;;;0.00;0.00;;;;;;;;;;1740195;28;20214;-76
2023/05/08 03:42:38;;;;;;;0.00;0.00;;;;;;;;;;1740288;28;20584;-76
2023/05/08 03:43:30;;;;;;;0.00;0.00;;;;;;;;;;1740167;28;20202;-75
2023/05/08 03:44:21;;;;;;;0.00;0.00;;;;;;;;;;1740505;28;20230;-75
2023/05/08 03:45:14;;;;;;;0.00;0.00;;;;;;;;;;1740573;28;20208;-74
2023/05/08 03:46:05;;;;;;;0.00;0.00;;;;;;;;;;1740429;28;20257;-75
2023/05/08 03:46:58;;;;;;;0.00;0.00;;;;;;;;;;1739536;28;20214;-75
2023/05/08 03:47:52;;;;;;;0.00;0.00;;;;;;;;;;1740250;28;20847;-75
2023/05/08 03:48:44;;;;;;;0.00;0.00;;;;;;;;;;1739757;28;20200;-75
2023/05/08 03:49:36;;;;;;;0.00;0.00;;;;;;;;;;1740316;28;20203;-75
2023/05/08 03:50:28;;;;;;;0.00;0.00;;;;;;;;;;1740274;28;20244;-76
2023/05/08 03:51:21;;;;;;;0.00;0.00;;;;;;;;;;1740629;28;20198;-77
2023/05/08 03:52:15;;;;;;;0.00;0.00;;;;;;;;;;1740732;28;20818;-76
2023/05/08 03:53:06;;;;;;;0.00;0.00;;;;;;;;;;1741207;28;20210;-76
2023/05/08 03:53:58;;;;;;;0.00;0.00;;;;;;;;;;1740518;28;20286;-76
2023/05/08 03:54:49;;;;;;;0.00;0.00;;;;;;;;;;1743093;28;20222;-76
2023/05/08 03:55:41;;;;;;;0.00;0.00;;;;;;;;;;1741846;28;20198;-76
2023/05/08 03:56:32;;;;;;;0.00;0.00;;;;;;;;;;1743999;28;20213;-76
2023/05/08 03:57:25;;;;;;;0.00;0.00;;;;;;;;;;1740047;28;20264;-76
2023/05/08 03:58:19;;;;;;;0.00;0.00;;;;;;;;;;1734748;28;20207;-76
2023/05/08 03:59:15;;;;;;;0.00;0.00;;;;;;;;;;1742812;28;20571;-77
2023/05/08 04:00:10;;;;;;;0.00;0.00;;;;;;;;;;1741509;28;20661;-76
2023/05/08 04:01:05;;;;;;;0.00;0.00;;;;;;;;;;1736069;28;20241;-76
2023/05/08 04:01:59;;;;;;;0.00;0.00;;;;;;;;;;1739779;28;20252;-77
2023/05/08 04:02:53;;;;;;;0.00;0.00;;;;;;;;;;1742395;28;20203;-77
2023/05/08 04:03:51;;;;;;;0.00;0.00;;;;;;;;;;1739539;28;20298;-77
2023/05/08 04:04:45;;;;;;;0.00;0.00;;;;;;;;;;1735639;28;20246;-77
2023/05/08 04:05:39;;;;;;;0.00;0.00;;;;;;;;;;1739904;28;20204;-77
2023/05/08 04:06:35;;;;;;;0.00;0.00;;;;;;;;;;1739967;28;20205;-75
2023/05/08 04:07:30;;;;;;;0.00;0.00;;;;;;;;;;1739592;28;20210;-75
2023/05/08 04:08:24;;;;;;;0.00;0.00;;;;;;;;;;1740411;28;20206;-75
2023/05/08 04:09:17;;;;;;;0.00;0.00;;;;;;;;;;1743759;28;20275;-75
2023/05/08 04:10:12;;;;;;;0.00;0.00;;;;;;;;;;1741095;28;20302;-75
2023/05/08 04:11:05;;;;;;;0.00;0.00;;;;;;;;;;1739991;28;20272;-75
2023/05/08 04:12:02;;;;;;;0.00;0.00;;;;;;;;;;1739292;28;20203;-76
2023/05/08 04:12:55;;;;;;;0.00;0.00;;;;;;;;;;1733875;28;21021;-75
2023/05/08 04:13:50;;;;;;;0.00;0.00;;;;;;;;;;1732225;28;20301;-75
2023/05/08 04:14:43;;;;;;;0.00;0.00;;;;;;;;;;1733335;28;20240;-74
2023/05/08 04:15:38;;;;;;;0.00;0.00;;;;;;;;;;1732937;28;20226;-75
2023/05/08 04:16:32;;;;;;;0.00;0.00;;;;;;;;;;1732903;28;20195;-75
2023/05/08 04:17:29;;;;;;;0.00;0.00;;;;;;;;;;1732938;28;20211;-75
2023/05/08 04:18:24;;;;;;;0.00;0.00;;;;;;;;;;1727937;28;20219;-75
2023/05/08 04:19:18;;;;;;;0.00;0.00;;;;;;;;;;1729629;28;20909;-75
2023/05/08 04:20:11;;;;;;;0.00;0.00;;;;;;;;;;1732311;28;21576;-74
2023/05/08 04:21:03;;;;;;;0.00;0.00;;;;;;;;;;1733065;28;20269;-76
2023/05/08 04:21:58;;;;;;;0.00;0.00;;;;;;;;;;1732553;28;20214;-77
2023/05/08 04:22:53;;;;;;;0.00;0.00;;;;;;;;;;1731018;28;20211;-76
2023/05/08 04:23:45;;;;;;;0.00;0.00;;;;;;;;;;1731441;28;20246;-76
2023/05/08 04:24:39;;;;;;;0.00;0.00;;;;;;;;;;1728007;28;20345;-76
2023/05/08 04:25:31;;;;;;;0.00;0.00;;;;;;;;;;1732873;28;20207;-76
2023/05/08 04:26:23;;;;;;;0.00;0.00;;;;;;;;;;1732958;28;20265;-76
2023/05/08 04:27:15;;;;;;;0.00;0.00;;;;;;;;;;1732406;28;20289;-76
2023/05/08 04:28:07;;;;;;;0.00;0.00;;;;;;;;;;1732910;28;20237;-76
2023/05/08 04:28:58;;;;;;;0.00;0.00;;;;;;;;;;1732566;28;20256;-76
2023/05/08 04:29:50;;;;;;;0.00;0.00;;;;;;;;;;1732887;28;20289;-76
2023/05/08 04:30:41;;;;;;;0.00;0.00;;;;;;;;;;1732842;28;20572;-76
2023/05/08 04:31:34;;;;;;;0.00;0.00;;;;;;;;;;1727253;28;20234;-76
2023/05/08 04:32:26;;;;;;;0.00;0.00;;;;;;;;;;1732344;28;20210;-76
2023/05/08 04:33:18;;;;;;;0.00;0.00;;;;;;;;;;1733000;28;20248;-76
2023/05/08 04:34:09;;;;;;;0.00;0.00;;;;;;;;;;1733008;28;20268;-76
2023/05/08 04:35:04;;;;;;;0.00;0.00;;;;;;;;;;1732685;28;20199;-76
2023/05/08 04:35:56;;;;;;;0.00;0.00;;;;;;;;;;1732839;28;20199;-76
2023/05/08 04:36:48;;;;;;;0.00;0.00;;;;;;;;;;1732300;28;20230;-76
2023/05/08 04:37:40;;;;;;;0.00;0.00;;;;;;;;;;1732736;28;20210;-76
2023/05/08 04:38:36;;;;;;;0.00;0.00;;;;;;;;;;1732491;28;20282;-76
2023/05/08 04:39:27;;;;;;;0.00;0.00;;;;;;;;;;1736258;28;20285;-76
2023/05/08 04:40:19;;;;;;;0.00;0.00;;;;;;;;;;1733423;28;20527;-76
2023/05/08 04:41:10;;;;;;;0.00;0.00;;;;;;;;;;1732791;28;20290;-77
2023/05/08 04:42:03;;;;;;;0.00;0.00;;;;;;;;;;1734663;28;20222;-76
2023/05/08 04:42:54;;;;;;;0.00;0.00;;;;;;;;;;1733289;28;20222;-76
2023/05/08 04:43:47;;;;;;;0.00;0.00;;;;;;;;;;1732534;28;20215;-76
2023/05/08 04:44:38;;;;;;;0.00;0.00;;;;;;;;;;1732642;28;20246;-76
2023/05/08 04:45:30;;;;;;;0.00;0.00;;;;;;;;;;1732891;28;20207;-76
2023/05/08 04:46:21;;;;;;;0.00;0.00;;;;;;;;;;1732986;28;20922;-76
2023/05/08 04:47:12;;;;;;;0.00;0.00;;;;;;;;;;1732253;28;20768;-76
2023/05/08 04:48:04;;;;;;;0.00;0.00;;;;;;;;;;1732869;28;20205;-76
2023/05/08 04:48:55;;;;;;;0.00;0.00;;;;;;;;;;1732353;28;20269;-76
2023/05/08 04:49:47;;;;;;;0.00;0.00;;;;;;;;;;1732897;28;20218;-76
2023/05/08 04:50:38;;;;;;;0.00;0.00;;;;;;;;;;1732706;28;20210;-76
2023/05/08 04:51:30;;;;;;;0.00;0.00;;;;;;;;;;1732403;28;20211;-76
2023/05/08 04:52:21;;;;;;;0.00;0.00;;;;;;;;;;1732464;28;20204;-76
2023/05/08 04:53:13;;;;;;;0.00;0.00;;;;;;;;;;1732748;28;20203;-76
2023/05/08 04:54:06;;;;;;;0.00;0.00;;;;;;;;;;1731566;28;20212;-76
2023/05/08 04:54:57;;;;;;;0.00;0.00;;;;;;;;;;1731918;28;20989;-76
2023/05/08 04:55:49;;;;;;;0.00;0.00;;;;;;;;;;1730042;28;20767;-76
2023/05/08 04:56:40;;;;;;;0.00;0.00;;;;;;;;;;1728787;28;20211;-76
2023/05/08 04:57:32;;;;;;;0.00;0.00;;;;;;;;;;1731911;28;20206;-76
2023/05/08 04:58:23;;;;;;;0.00;0.00;;;;;;;;;;1732558;28;20207;-76
2023/05/08 04:59:15;;;;;;;0.00;0.00;;;;;;;;;;1732333;28;20211;-76
2023/05/08 05:00:06;;;;;;;0.00;0.00;;;;;;;;;;1732999;28;20204;-76
2023/05/08 05:01:02;;;;;;;0.00;0.00;;;;;;;;;;1731225;28;20307;-76
2023/05/08 05:01:53;;;;;;;0.00;0.00;;;;;;;;;;1731003;28;20211;-75
2023/05/08 05:02:45;;;;;;;0.00;0.00;;;;;;;;;;1735172;28;20246;-75
2023/05/08 05:03:36;;;;;;;0.00;0.00;;;;;;;;;;1732041;28;20572;-75
2023/05/08 05:04:28;;;;;;;0.00;0.00;;;;;;;;;;1727814;28;20205;-75
2023/05/08 05:05:19;;;;;;;0.00;0.00;;;;;;;;;;1733069;28;20265;-75
2023/05/08 05:06:11;;;;;;;0.00;0.00;;;;;;;;;;1732580;28;20290;-75
2023/05/08 05:07:02;;;;;;;0.00;0.00;;;;;;;;;;1732231;28;20215;-75
2023/05/08 05:07:54;;;;;;;0.00;0.00;;;;;;;;;;1730368;28;20198;-75
2023/05/08 05:08:45;;;;;;;0.00;0.00;;;;;;;;;;1732307;28;20216;-75
2023/05/08 05:09:39;;;;;;;0.00;0.00;;;;;;;;;;1727871;28;20201;-76
2023/05/08 05:10:30;;;;;;;0.00;0.00;;;;;;;;;;1732752;28;20209;-75
2023/05/08 05:11:22;;;;;;;0.00;0.00;;;;;;;;;;1726258;28;20651;-75
2023/05/08 05:12:13;;;;;;;0.00;0.00;;;;;;;;;;1735190;28;20237;-75
2023/05/08 05:13:05;;;;;;;0.00;0.00;;;;;;;;;;1739795;28;20245;-75
2023/05/08 05:13:57;;;;;;;0.00;0.00;;;;;;;;;;1739087;28;20204;-75
2023/05/08 05:14:48;;;;;;;0.00;0.00;;;;;;;;;;1739701;28;20227;-75
2023/05/08 05:15:41;;;;;;;0.00;0.00;;;;;;;;;;1739758;28;20208;-75
2023/05/08 05:16:33;;;;;;;0.00;0.00;;;;;;;;;;1739259;28;20268;-75
2023/05/08 05:17:24;;;;;;;0.00;0.00;;;;;;;;;;1739604;28;20203;-75
2023/05/08 05:18:16;;;;;;;0.00;0.00;;;;;;;;;;1733774;28;20542;-75
2023/05/08 05:19:07;;;;;;;0.00;0.00;;;;;;;;;;1739327;28;20261;-75